sensor_id;sensor_type;location;lat;lon;timestamp;P1;durP1;ratioP1;P2;durP2;ratioP2
18265;SDS011;9259;48.194;16.322;2022-09-03T00:01:20;7.88;;;1.77;;
18265;SDS011;9259;48.194;16.322;2022-09-03T00:03:56;5.63;;;2.00;;
18265;SDS011;9259;48.194;16.322;2022-09-03T00:06:29;5.85;;;2.13;;
18265;SDS011;9259;48.194;16.322;2022-09-03T00:09:02;2.67;;;1.58;;
18265;SDS011;9259;48.194;16.322;2022-09-03T00:11:43;5.75;;;1.92;;
18265;SDS011;9259;48.194;16.322;2022-09-03T00:14:17;3.03;;;1.70;;
18265;SDS011;9259;48.194;16.322;2022-09-03T00:16:48;3.85;;;1.50;;
18265;SDS011;9259;48.194;16.322;2022-09-03T00:19:22;7.13;;;1.80;;
18265;SDS011;9259;48.194;16.322;2022-09-03T00:21:54;3.58;;;1.85;;
18265;SDS011;9259;48.194;16.322;2022-09-03T00:24:27;4.18;;;1.58;;
18265;SDS011;9259;48.194;16.322;2022-09-03T00:27:02;7.20;;;1.95;;
18265;SDS011;9259;48.194;16.322;2022-09-03T00:29:34;3.47;;;1.52;;
18265;SDS011;9259;48.194;16.322;2022-09-03T00:32:06;5.35;;;1.95;;
18265;SDS011;9259;48.194;16.322;2022-09-03T00:34:40;3.72;;;1.90;;
18265;SDS011;9259;48.194;16.322;2022-09-03T00:37:12;11.07;;;2.00;;
18265;SDS011;9259;48.194;16.322;2022-09-03T00:39:45;4.50;;;1.80;;
18265;SDS011;9259;48.194;16.322;2022-09-03T00:42:26;3.22;;;1.70;;
18265;SDS011;9259;48.194;16.322;2022-09-03T00:45:05;4.13;;;1.80;;
18265;SDS011;9259;48.194;16.322;2022-09-03T00:47:40;3.72;;;1.40;;
18265;SDS011;9259;48.194;16.322;2022-09-03T00:50:37;4.80;;;1.80;;
18265;SDS011;9259;48.194;16.322;2022-09-03T00:53:14;4.30;;;1.58;;
18265;SDS011;9259;48.194;16.322;2022-09-03T00:55:48;7.55;;;1.98;;
18265;SDS011;9259;48.194;16.322;2022-09-03T00:58:31;5.80;;;1.63;;
18265;SDS011;9259;48.194;16.322;2022-09-03T01:01:18;7.20;;;1.77;;
18265;SDS011;9259;48.194;16.322;2022-09-03T01:03:51;3.92;;;1.60;;
18265;SDS011;9259;48.194;16.322;2022-09-03T01:06:28;2.90;;;1.55;;
18265;SDS011;9259;48.194;16.322;2022-09-03T01:09:10;3.38;;;1.60;;
18265;SDS011;9259;48.194;16.322;2022-09-03T01:11:51;5.68;;;1.48;;
18265;SDS011;9259;48.194;16.322;2022-09-03T01:14:30;4.28;;;1.65;;
18265;SDS011;9259;48.194;16.322;2022-09-03T01:17:09;3.70;;;1.52;;
18265;SDS011;9259;48.194;16.322;2022-09-03T01:19:50;5.93;;;1.67;;
18265;SDS011;9259;48.194;16.322;2022-09-03T01:22:40;3.97;;;1.90;;
18265;SDS011;9259;48.194;16.322;2022-09-03T01:25:34;5.82;;;2.05;;
18265;SDS011;9259;48.194;16.322;2022-09-03T01:28:15;4.78;;;1.67;;
18265;SDS011;9259;48.194;16.322;2022-09-03T01:30:50;2.92;;;1.70;;
18265;SDS011;9259;48.194;16.322;2022-09-03T01:33:23;6.72;;;1.90;;
18265;SDS011;9259;48.194;16.322;2022-09-03T01:35:56;5.70;;;2.10;;
18265;SDS011;9259;48.194;16.322;2022-09-03T01:38:36;4.47;;;1.58;;
18265;SDS011;9259;48.194;16.322;2022-09-03T01:41:26;6.80;;;1.88;;
18265;SDS011;9259;48.194;16.322;2022-09-03T01:44:25;3.65;;;1.80;;
18265;SDS011;9259;48.194;16.322;2022-09-03T01:47:09;4.70;;;1.88;;
18265;SDS011;9259;48.194;16.322;2022-09-03T01:49:46;4.93;;;1.70;;
18265;SDS011;9259;48.194;16.322;2022-09-03T01:52:24;5.10;;;1.70;;
18265;SDS011;9259;48.194;16.322;2022-09-03T01:55:04;5.93;;;1.85;;
18265;SDS011;9259;48.194;16.322;2022-09-03T01:57:41;5.95;;;1.88;;
18265;SDS011;9259;48.194;16.322;2022-09-03T02:00:15;7.05;;;2.10;;
18265;SDS011;9259;48.194;16.322;2022-09-03T02:02:46;3.92;;;1.67;;
18265;SDS011;9259;48.194;16.322;2022-09-03T02:05:17;3.45;;;1.73;;
18265;SDS011;9259;48.194;16.322;2022-09-03T02:07:50;4.97;;;1.95;;
18265;SDS011;9259;48.194;16.322;2022-09-03T02:10:24;5.20;;;1.85;;
18265;SDS011;9259;48.194;16.322;2022-09-03T02:12:56;4.45;;;1.88;;
18265;SDS011;9259;48.194;16.322;2022-09-03T02:15:29;3.40;;;1.60;;
18265;SDS011;9259;48.194;16.322;2022-09-03T02:18:01;3.58;;;1.88;;
18265;SDS011;9259;48.194;16.322;2022-09-03T02:20:31;4.18;;;1.90;;
18265;SDS011;9259;48.194;16.322;2022-09-03T02:23:00;5.60;;;1.90;;
18265;SDS011;9259;48.194;16.322;2022-09-03T02:25:30;4.70;;;2.15;;
18265;SDS011;9259;48.194;16.322;2022-09-03T02:28:00;3.47;;;1.80;;
18265;SDS011;9259;48.194;16.322;2022-09-03T02:30:34;3.53;;;2.03;;
18265;SDS011;9259;48.194;16.322;2022-09-03T02:33:02;4.53;;;2.00;;
18265;SDS011;9259;48.194;16.322;2022-09-03T02:35:33;5.80;;;2.80;;
18265;SDS011;9259;48.194;16.322;2022-09-03T02:38:08;5.78;;;2.58;;
18265;SDS011;9259;48.194;16.322;2022-09-03T02:40:38;3.97;;;2.15;;
18265;SDS011;9259;48.194;16.322;2022-09-03T02:43:07;4.37;;;2.20;;
18265;SDS011;9259;48.194;16.322;2022-09-03T02:45:39;4.70;;;2.05;;
18265;SDS011;9259;48.194;16.322;2022-09-03T02:48:09;4.17;;;2.07;;
18265;SDS011;9259;48.194;16.322;2022-09-03T02:50:39;4.90;;;2.00;;
18265;SDS011;9259;48.194;16.322;2022-09-03T02:53:07;6.53;;;2.10;;
18265;SDS011;9259;48.194;16.322;2022-09-03T02:55:36;9.47;;;2.23;;
18265;SDS011;9259;48.194;16.322;2022-09-03T02:58:04;5.65;;;2.17;;
18265;SDS011;9259;48.194;16.322;2022-09-03T03:00:33;8.67;;;2.30;;
18265;SDS011;9259;48.194;16.322;2022-09-03T03:03:03;8.03;;;2.20;;
18265;SDS011;9259;48.194;16.322;2022-09-03T03:05:34;7.47;;;2.13;;
18265;SDS011;9259;48.194;16.322;2022-09-03T03:08:08;5.47;;;2.10;;
18265;SDS011;9259;48.194;16.322;2022-09-03T03:10:36;5.43;;;2.13;;
18265;SDS011;9259;48.194;16.322;2022-09-03T03:13:05;2.93;;;2.27;;
18265;SDS011;9259;48.194;16.322;2022-09-03T03:15:34;5.30;;;2.20;;
18265;SDS011;9259;48.194;16.322;2022-09-03T03:18:05;6.00;;;2.27;;
18265;SDS011;9259;48.194;16.322;2022-09-03T03:20:37;5.63;;;2.20;;
18265;SDS011;9259;48.194;16.322;2022-09-03T03:23:13;8.23;;;2.30;;
18265;SDS011;9259;48.194;16.322;2022-09-03T03:25:41;6.27;;;2.63;;
18265;SDS011;9259;48.194;16.322;2022-09-03T03:28:09;6.37;;;2.70;;
18265;SDS011;9259;48.194;16.322;2022-09-03T03:30:39;5.07;;;2.40;;
18265;SDS011;9259;48.194;16.322;2022-09-03T03:33:09;4.67;;;2.60;;
18265;SDS011;9259;48.194;16.322;2022-09-03T03:35:37;5.10;;;2.33;;
18265;SDS011;9259;48.194;16.322;2022-09-03T03:38:07;4.97;;;2.20;;
18265;SDS011;9259;48.194;16.322;2022-09-03T03:40:36;5.47;;;3.10;;
18265;SDS011;9259;48.194;16.322;2022-09-03T03:43:06;4.57;;;2.47;;
18265;SDS011;9259;48.194;16.322;2022-09-03T03:45:35;9.50;;;2.20;;
18265;SDS011;9259;48.194;16.322;2022-09-03T03:48:04;5.37;;;2.33;;
18265;SDS011;9259;48.194;16.322;2022-09-03T03:50:35;7.97;;;2.37;;
18265;SDS011;9259;48.194;16.322;2022-09-03T03:53:07;3.90;;;2.23;;
18265;SDS011;9259;48.194;16.322;2022-09-03T03:55:35;4.63;;;2.33;;
18265;SDS011;9259;48.194;16.322;2022-09-03T03:58:09;4.40;;;2.10;;
18265;SDS011;9259;48.194;16.322;2022-09-03T04:00:43;3.93;;;2.20;;
18265;SDS011;9259;48.194;16.322;2022-09-03T04:03:14;6.60;;;2.50;;
18265;SDS011;9259;48.194;16.322;2022-09-03T04:05:52;5.53;;;2.63;;
18265;SDS011;9259;48.194;16.322;2022-09-03T04:08:28;3.80;;;2.10;;
18265;SDS011;9259;48.194;16.322;2022-09-03T04:10:58;5.73;;;2.80;;
18265;SDS011;9259;48.194;16.322;2022-09-03T04:13:29;4.47;;;2.80;;
18265;SDS011;9259;48.194;16.322;2022-09-03T04:16:01;4.93;;;2.40;;
18265;SDS011;9259;48.194;16.322;2022-09-03T04:18:31;4.13;;;2.23;;
18265;SDS011;9259;48.194;16.322;2022-09-03T04:21:12;3.87;;;2.00;;
18265;SDS011;9259;48.194;16.322;2022-09-03T04:23:42;7.73;;;2.80;;
18265;SDS011;9259;48.194;16.322;2022-09-03T04:26:12;8.90;;;4.07;;
18265;SDS011;9259;48.194;16.322;2022-09-03T04:28:42;4.80;;;2.40;;
18265;SDS011;9259;48.194;16.322;2022-09-03T04:31:11;5.70;;;2.90;;
18265;SDS011;9259;48.194;16.322;2022-09-03T04:33:41;7.37;;;2.40;;
18265;SDS011;9259;48.194;16.322;2022-09-03T04:36:09;5.57;;;2.50;;
18265;SDS011;9259;48.194;16.322;2022-09-03T04:38:41;6.67;;;2.30;;
18265;SDS011;9259;48.194;16.322;2022-09-03T04:41:12;3.40;;;2.30;;
18265;SDS011;9259;48.194;16.322;2022-09-03T04:43:44;6.27;;;2.30;;
18265;SDS011;9259;48.194;16.322;2022-09-03T04:46:16;4.53;;;2.17;;
18265;SDS011;9259;48.194;16.322;2022-09-03T04:48:46;4.27;;;2.50;;
18265;SDS011;9259;48.194;16.322;2022-09-03T04:51:17;7.80;;;2.60;;
18265;SDS011;9259;48.194;16.322;2022-09-03T04:53:52;4.37;;;2.53;;
18265;SDS011;9259;48.194;16.322;2022-09-03T04:56:23;15.93;;;2.60;;
18265;SDS011;9259;48.194;16.322;2022-09-03T04:58:57;4.07;;;2.40;;
18265;SDS011;9259;48.194;16.322;2022-09-03T05:01:28;4.00;;;2.43;;
18265;SDS011;9259;48.194;16.322;2022-09-03T05:04:00;4.17;;;2.33;;
18265;SDS011;9259;48.194;16.322;2022-09-03T05:06:30;6.83;;;2.70;;
18265;SDS011;9259;48.194;16.322;2022-09-03T05:09:00;5.70;;;2.67;;
18265;SDS011;9259;48.194;16.322;2022-09-03T05:11:29;7.57;;;2.67;;
18265;SDS011;9259;48.194;16.322;2022-09-03T05:14:02;4.67;;;2.47;;
18265;SDS011;9259;48.194;16.322;2022-09-03T05:16:33;9.20;;;2.63;;
18265;SDS011;9259;48.194;16.322;2022-09-03T05:19:01;8.63;;;2.67;;
18265;SDS011;9259;48.194;16.322;2022-09-03T05:21:32;5.88;;;2.70;;
18265;SDS011;9259;48.194;16.322;2022-09-03T05:24:20;8.77;;;3.10;;
18265;SDS011;9259;48.194;16.322;2022-09-03T05:26:50;4.53;;;2.67;;
18265;SDS011;9259;48.194;16.322;2022-09-03T05:29:20;6.83;;;2.93;;
18265;SDS011;9259;48.194;16.322;2022-09-03T05:31:52;5.93;;;2.97;;
18265;SDS011;9259;48.194;16.322;2022-09-03T05:34:20;8.10;;;2.85;;
18265;SDS011;9259;48.194;16.322;2022-09-03T05:36:52;3.78;;;2.30;;
18265;SDS011;9259;48.194;16.322;2022-09-03T05:39:23;7.50;;;2.40;;
18265;SDS011;9259;48.194;16.322;2022-09-03T05:41:52;7.57;;;2.45;;
18265;SDS011;9259;48.194;16.322;2022-09-03T05:44:21;5.35;;;2.67;;
18265;SDS011;9259;48.194;16.322;2022-09-03T05:46:49;5.25;;;2.28;;
18265;SDS011;9259;48.194;16.322;2022-09-03T05:49:21;12.90;;;2.50;;
18265;SDS011;9259;48.194;16.322;2022-09-03T05:51:49;7.20;;;2.50;;
18265;SDS011;9259;48.194;16.322;2022-09-03T05:54:21;5.20;;;2.80;;
18265;SDS011;9259;48.194;16.322;2022-09-03T05:56:50;5.88;;;2.38;;
18265;SDS011;9259;48.194;16.322;2022-09-03T05:59:21;5.13;;;2.38;;
18265;SDS011;9259;48.194;16.322;2022-09-03T06:01:51;8.68;;;2.50;;
18265;SDS011;9259;48.194;16.322;2022-09-03T06:04:19;5.18;;;3.00;;
18265;SDS011;9259;48.194;16.322;2022-09-03T06:06:48;9.20;;;2.90;;
18265;SDS011;9259;48.194;16.322;2022-09-03T06:09:18;7.47;;;3.17;;
18265;SDS011;9259;48.194;16.322;2022-09-03T06:11:49;6.20;;;2.70;;
18265;SDS011;9259;48.194;16.322;2022-09-03T06:14:22;5.85;;;3.28;;
18265;SDS011;9259;48.194;16.322;2022-09-03T06:16:50;6.95;;;3.00;;
18265;SDS011;9259;48.194;16.322;2022-09-03T06:19:25;7.45;;;3.25;;
18265;SDS011;9259;48.194;16.322;2022-09-03T06:21:54;8.43;;;3.42;;
18265;SDS011;9259;48.194;16.322;2022-09-03T06:24:31;8.75;;;2.80;;
18265;SDS011;9259;48.194;16.322;2022-09-03T06:27:02;5.50;;;3.22;;
18265;SDS011;9259;48.194;16.322;2022-09-03T06:29:32;6.15;;;2.95;;
18265;SDS011;9259;48.194;16.322;2022-09-03T06:32:04;5.82;;;3.30;;
18265;SDS011;9259;48.194;16.322;2022-09-03T06:34:33;5.70;;;2.75;;
18265;SDS011;9259;48.194;16.322;2022-09-03T06:37:01;6.72;;;2.92;;
18265;SDS011;9259;48.194;16.322;2022-09-03T06:39:32;5.43;;;2.92;;
18265;SDS011;9259;48.194;16.322;2022-09-03T06:42:01;6.80;;;2.75;;
18265;SDS011;9259;48.194;16.322;2022-09-03T06:44:34;6.22;;;2.90;;
18265;SDS011;9259;48.194;16.322;2022-09-03T06:47:05;5.85;;;3.20;;
18265;SDS011;9259;48.194;16.322;2022-09-03T06:49:37;5.32;;;2.60;;
18265;SDS011;9259;48.194;16.322;2022-09-03T06:52:06;8.13;;;3.08;;
18265;SDS011;9259;48.194;16.322;2022-09-03T06:54:38;9.45;;;3.38;;
18265;SDS011;9259;48.194;16.322;2022-09-03T06:57:06;5.70;;;2.90;;
18265;SDS011;9259;48.194;16.322;2022-09-03T06:59:36;7.82;;;2.83;;
18265;SDS011;9259;48.194;16.322;2022-09-03T07:02:04;5.20;;;2.60;;
18265;SDS011;9259;48.194;16.322;2022-09-03T07:04:35;5.75;;;3.10;;
18265;SDS011;9259;48.194;16.322;2022-09-03T07:07:03;6.22;;;2.97;;
18265;SDS011;9259;48.194;16.322;2022-09-03T07:09:41;6.55;;;2.95;;
18265;SDS011;9259;48.194;16.322;2022-09-03T07:12:09;6.75;;;3.00;;
18265;SDS011;9259;48.194;16.322;2022-09-03T07:14:40;9.10;;;3.15;;
18265;SDS011;9259;48.194;16.322;2022-09-03T07:17:08;5.50;;;2.70;;
18265;SDS011;9259;48.194;16.322;2022-09-03T07:19:37;7.63;;;3.47;;
18265;SDS011;9259;48.194;16.322;2022-09-03T07:22:11;6.20;;;3.03;;
18265;SDS011;9259;48.194;16.322;2022-09-03T07:24:59;9.23;;;3.05;;
18265;SDS011;9259;48.194;16.322;2022-09-03T07:27:27;7.97;;;2.67;;
18265;SDS011;9259;48.194;16.322;2022-09-03T07:29:58;7.97;;;3.13;;
18265;SDS011;9259;48.194;16.322;2022-09-03T07:32:33;5.80;;;3.28;;
18265;SDS011;9259;48.194;16.322;2022-09-03T07:35:08;7.80;;;3.10;;
18265;SDS011;9259;48.194;16.322;2022-09-03T07:37:40;6.88;;;2.78;;
18265;SDS011;9259;48.194;16.322;2022-09-03T07:40:10;4.15;;;2.63;;
18265;SDS011;9259;48.194;16.322;2022-09-03T07:42:40;4.68;;;2.88;;
18265;SDS011;9259;48.194;16.322;2022-09-03T07:45:11;8.60;;;3.38;;
18265;SDS011;9259;48.194;16.322;2022-09-03T07:47:45;7.18;;;3.20;;
18265;SDS011;9259;48.194;16.322;2022-09-03T07:50:14;7.97;;;3.17;;
18265;SDS011;9259;48.194;16.322;2022-09-03T07:52:42;8.30;;;2.72;;
18265;SDS011;9259;48.194;16.322;2022-09-03T07:55:11;7.90;;;2.90;;
18265;SDS011;9259;48.194;16.322;2022-09-03T07:57:39;9.77;;;2.92;;
18265;SDS011;9259;48.194;16.322;2022-09-03T08:00:09;4.53;;;2.75;;
18265;SDS011;9259;48.194;16.322;2022-09-03T08:02:44;6.25;;;3.00;;
18265;SDS011;9259;48.194;16.322;2022-09-03T08:05:17;9.40;;;3.40;;
18265;SDS011;9259;48.194;16.322;2022-09-03T08:07:47;4.38;;;2.60;;
18265;SDS011;9259;48.194;16.322;2022-09-03T08:10:18;8.57;;;3.45;;
18265;SDS011;9259;48.194;16.322;2022-09-03T08:12:48;5.32;;;2.95;;
18265;SDS011;9259;48.194;16.322;2022-09-03T08:15:16;6.05;;;2.67;;
18265;SDS011;9259;48.194;16.322;2022-09-03T08:17:44;7.85;;;2.90;;
18265;SDS011;9259;48.194;16.322;2022-09-03T08:20:12;4.60;;;2.70;;
18265;SDS011;9259;48.194;16.322;2022-09-03T08:22:41;4.70;;;2.83;;
18265;SDS011;9259;48.194;16.322;2022-09-03T08:25:11;6.47;;;2.75;;
18265;SDS011;9259;48.194;16.322;2022-09-03T08:27:40;5.53;;;2.70;;
18265;SDS011;9259;48.194;16.322;2022-09-03T08:30:09;7.93;;;3.10;;
18265;SDS011;9259;48.194;16.322;2022-09-03T08:32:38;8.07;;;3.38;;
18265;SDS011;9259;48.194;16.322;2022-09-03T08:35:06;5.53;;;2.97;;
18265;SDS011;9259;48.194;16.322;2022-09-03T08:37:43;7.75;;;3.05;;
18265;SDS011;9259;48.194;16.322;2022-09-03T08:40:14;8.27;;;3.25;;
18265;SDS011;9259;48.194;16.322;2022-09-03T08:42:48;6.10;;;2.80;;
18265;SDS011;9259;48.194;16.322;2022-09-03T08:45:25;4.38;;;3.00;;
18265;SDS011;9259;48.194;16.322;2022-09-03T08:47:58;7.60;;;2.92;;
18265;SDS011;9259;48.194;16.322;2022-09-03T08:50:30;4.55;;;2.85;;
18265;SDS011;9259;48.194;16.322;2022-09-03T08:53:05;5.00;;;2.70;;
18265;SDS011;9259;48.194;16.322;2022-09-03T08:55:41;5.10;;;2.65;;
18265;SDS011;9259;48.194;16.322;2022-09-03T08:58:24;4.55;;;2.50;;
18265;SDS011;9259;48.194;16.322;2022-09-03T09:00:56;6.78;;;2.72;;
18265;SDS011;9259;48.194;16.322;2022-09-03T09:03:33;6.68;;;2.90;;
18265;SDS011;9259;48.194;16.322;2022-09-03T09:06:11;4.30;;;2.45;;
18265;SDS011;9259;48.194;16.322;2022-09-03T09:08:47;8.80;;;2.72;;
18265;SDS011;9259;48.194;16.322;2022-09-03T09:11:27;2.47;;;2.00;;
18265;SDS011;9259;48.194;16.322;2022-09-03T09:14:09;2.33;;;2.00;;
18265;SDS011;9259;48.194;16.322;2022-09-03T09:16:43;5.93;;;2.20;;
18265;SDS011;9259;48.194;16.322;2022-09-03T09:19:27;9.32;;;2.30;;
18265;SDS011;9259;48.194;16.322;2022-09-03T09:22:04;6.43;;;2.33;;
18265;SDS011;9259;48.194;16.322;2022-09-03T09:24:37;6.78;;;1.80;;
18265;SDS011;9259;48.194;16.322;2022-09-03T09:27:09;7.45;;;2.20;;
18265;SDS011;9259;48.194;16.322;2022-09-03T09:29:45;3.92;;;1.90;;
18265;SDS011;9259;48.194;16.322;2022-09-03T09:32:15;10.70;;;2.03;;
18265;SDS011;9259;48.194;16.322;2022-09-03T09:34:49;6.35;;;2.15;;
18265;SDS011;9259;48.194;16.322;2022-09-03T09:37:18;6.40;;;2.15;;
18265;SDS011;9259;48.194;16.322;2022-09-03T09:39:53;2.40;;;1.75;;
18265;SDS011;9259;48.194;16.322;2022-09-03T09:42:26;3.78;;;2.00;;
18265;SDS011;9259;48.194;16.322;2022-09-03T09:45:07;3.58;;;1.83;;
18265;SDS011;9259;48.194;16.322;2022-09-03T09:47:37;6.45;;;1.88;;
18265;SDS011;9259;48.194;16.322;2022-09-03T09:50:15;4.57;;;1.95;;
18265;SDS011;9259;48.194;16.322;2022-09-03T09:52:48;10.05;;;2.60;;
18265;SDS011;9259;48.194;16.322;2022-09-03T09:55:27;6.18;;;1.85;;
18265;SDS011;9259;48.194;16.322;2022-09-03T09:58:03;9.27;;;2.15;;
18265;SDS011;9259;48.194;16.322;2022-09-03T10:00:36;4.95;;;1.92;;
18265;SDS011;9259;48.194;16.322;2022-09-03T10:03:05;4.82;;;1.75;;
18265;SDS011;9259;48.194;16.322;2022-09-03T10:05:38;5.22;;;1.90;;
18265;SDS011;9259;48.194;16.322;2022-09-03T10:08:17;4.07;;;1.98;;
18265;SDS011;9259;48.194;16.322;2022-09-03T10:10:48;5.05;;;1.90;;
18265;SDS011;9259;48.194;16.322;2022-09-03T10:13:17;5.43;;;2.05;;
18265;SDS011;9259;48.194;16.322;2022-09-03T10:15:49;4.00;;;2.10;;
18265;SDS011;9259;48.194;16.322;2022-09-03T10:18:28;3.50;;;2.10;;
18265;SDS011;9259;48.194;16.322;2022-09-03T10:21:05;4.82;;;1.95;;
18265;SDS011;9259;48.194;16.322;2022-09-03T10:23:40;3.67;;;1.75;;
18265;SDS011;9259;48.194;16.322;2022-09-03T10:26:16;3.72;;;1.90;;
18265;SDS011;9259;48.194;16.322;2022-09-03T10:28:48;6.57;;;2.17;;
18265;SDS011;9259;48.194;16.322;2022-09-03T10:31:23;6.55;;;1.95;;
18265;SDS011;9259;48.194;16.322;2022-09-03T10:34:05;4.55;;;1.85;;
18265;SDS011;9259;48.194;16.322;2022-09-03T10:36:38;5.22;;;2.05;;
18265;SDS011;9259;48.194;16.322;2022-09-03T10:39:12;5.03;;;1.80;;
18265;SDS011;9259;48.194;16.322;2022-09-03T10:41:53;5.13;;;1.90;;
18265;SDS011;9259;48.194;16.322;2022-09-03T10:44:38;4.72;;;1.88;;
18265;SDS011;9259;48.194;16.322;2022-09-03T10:47:24;3.53;;;2.08;;
18265;SDS011;9259;48.194;16.322;2022-09-03T10:50:07;7.65;;;2.40;;
18265;SDS011;9259;48.194;16.322;2022-09-03T10:52:46;6.03;;;1.98;;
18265;SDS011;9259;48.194;16.322;2022-09-03T10:55:26;5.05;;;1.92;;
18265;SDS011;9259;48.194;16.322;2022-09-03T10:58:04;3.30;;;1.67;;
18265;SDS011;9259;48.194;16.322;2022-09-03T11:00:50;6.55;;;2.10;;
18265;SDS011;9259;48.194;16.322;2022-09-03T11:03:30;4.63;;;1.88;;
18265;SDS011;9259;48.194;16.322;2022-09-03T11:06:19;4.75;;;1.92;;
18265;SDS011;9259;48.194;16.322;2022-09-03T11:08:52;6.47;;;1.70;;
18265;SDS011;9259;48.194;16.322;2022-09-03T11:11:26;5.60;;;1.70;;
18265;SDS011;9259;48.194;16.322;2022-09-03T11:14:01;2.45;;;1.60;;
18265;SDS011;9259;48.194;16.322;2022-09-03T11:16:34;3.28;;;2.03;;
18265;SDS011;9259;48.194;16.322;2022-09-03T11:19:08;2.67;;;1.80;;
18265;SDS011;9259;48.194;16.322;2022-09-03T11:21:41;3.97;;;1.88;;
18265;SDS011;9259;48.194;16.322;2022-09-03T11:24:11;6.97;;;2.03;;
18265;SDS011;9259;48.194;16.322;2022-09-03T11:26:43;7.05;;;2.00;;
18265;SDS011;9259;48.194;16.322;2022-09-03T11:29:23;3.85;;;1.67;;
18265;SDS011;9259;48.194;16.322;2022-09-03T11:31:57;5.38;;;1.98;;
18265;SDS011;9259;48.194;16.322;2022-09-03T11:34:31;5.38;;;2.03;;
18265;SDS011;9259;48.194;16.322;2022-09-03T11:37:05;2.92;;;1.70;;
18265;SDS011;9259;48.194;16.322;2022-09-03T11:39:43;4.85;;;2.10;;
18265;SDS011;9259;48.194;16.322;2022-09-03T11:42:23;8.02;;;2.15;;
18265;SDS011;9259;48.194;16.322;2022-09-03T11:44:59;6.35;;;2.20;;
18265;SDS011;9259;48.194;16.322;2022-09-03T11:47:48;2.92;;;1.60;;
18265;SDS011;9259;48.194;16.322;2022-09-03T11:50:20;5.20;;;1.70;;
18265;SDS011;9259;48.194;16.322;2022-09-03T11:52:52;2.60;;;1.50;;
18265;SDS011;9259;48.194;16.322;2022-09-03T11:55:24;3.53;;;1.60;;
18265;SDS011;9259;48.194;16.322;2022-09-03T11:57:56;3.63;;;1.63;;
18265;SDS011;9259;48.194;16.322;2022-09-03T12:00:28;7.07;;;2.00;;
18265;SDS011;9259;48.194;16.322;2022-09-03T12:02:59;2.80;;;1.50;;
18265;SDS011;9259;48.194;16.322;2022-09-03T12:05:34;3.60;;;1.80;;
18265;SDS011;9259;48.194;16.322;2022-09-03T12:08:20;4.85;;;1.90;;
18265;SDS011;9259;48.194;16.322;2022-09-03T12:11:18;5.35;;;2.15;;
18265;SDS011;9259;48.194;16.322;2022-09-03T12:13:59;4.32;;;2.25;;
18265;SDS011;9259;48.194;16.322;2022-09-03T12:16:52;4.20;;;2.00;;
18265;SDS011;9259;48.194;16.322;2022-09-03T12:19:36;8.85;;;2.05;;
18265;SDS011;9259;48.194;16.322;2022-09-03T12:22:08;3.15;;;1.77;;
18265;SDS011;9259;48.194;16.322;2022-09-03T12:24:39;4.10;;;1.85;;
18265;SDS011;9259;48.194;16.322;2022-09-03T12:27:09;3.00;;;1.80;;
18265;SDS011;9259;48.194;16.322;2022-09-03T12:30:00;3.78;;;2.00;;
18265;SDS011;9259;48.194;16.322;2022-09-03T12:32:32;5.00;;;1.92;;
18265;SDS011;9259;48.194;16.322;2022-09-03T12:35:09;4.95;;;1.80;;
18265;SDS011;9259;48.194;16.322;2022-09-03T12:37:41;4.13;;;1.58;;
18265;SDS011;9259;48.194;16.322;2022-09-03T12:40:17;3.90;;;1.60;;
18265;SDS011;9259;48.194;16.322;2022-09-03T12:42:46;5.18;;;1.63;;
18265;SDS011;9259;48.194;16.322;2022-09-03T12:45:17;4.68;;;1.80;;
18265;SDS011;9259;48.194;16.322;2022-09-03T12:47:47;4.32;;;1.50;;
18265;SDS011;9259;48.194;16.322;2022-09-03T12:50:17;4.13;;;1.60;;
18265;SDS011;9259;48.194;16.322;2022-09-03T12:52:47;4.70;;;1.90;;
18265;SDS011;9259;48.194;16.322;2022-09-03T12:55:25;4.97;;;1.67;;
18265;SDS011;9259;48.194;16.322;2022-09-03T12:58:00;3.13;;;1.70;;
18265;SDS011;9259;48.194;16.322;2022-09-03T13:00:32;4.30;;;1.63;;
18265;SDS011;9259;48.194;16.322;2022-09-03T13:03:05;6.90;;;2.10;;
18265;SDS011;9259;48.194;16.322;2022-09-03T13:05:39;5.00;;;1.98;;
18265;SDS011;9259;48.194;16.322;2022-09-03T13:08:15;4.93;;;2.20;;
18265;SDS011;9259;48.194;16.322;2022-09-03T13:10:49;4.20;;;1.67;;
18265;SDS011;9259;48.194;16.322;2022-09-03T13:13:20;4.97;;;1.98;;
18265;SDS011;9259;48.194;16.322;2022-09-03T13:15:59;2.20;;;1.58;;
18265;SDS011;9259;48.194;16.322;2022-09-03T13:18:53;4.65;;;1.90;;
18265;SDS011;9259;48.194;16.322;2022-09-03T13:21:31;7.10;;;1.70;;
18265;SDS011;9259;48.194;16.322;2022-09-03T13:27:08;3.53;;;1.45;;
18265;SDS011;9259;48.194;16.322;2022-09-03T13:29:48;2.50;;;1.85;;
18265;SDS011;9259;48.194;16.322;2022-09-03T13:32:35;2.90;;;1.42;;
18265;SDS011;9259;48.194;16.322;2022-09-03T13:35:12;4.03;;;1.60;;
18265;SDS011;9259;48.194;16.322;2022-09-03T13:37:46;5.40;;;1.70;;
18265;SDS011;9259;48.194;16.322;2022-09-03T13:40:21;5.03;;;1.63;;
18265;SDS011;9259;48.194;16.322;2022-09-03T13:42:52;3.55;;;1.95;;
18265;SDS011;9259;48.194;16.322;2022-09-03T13:45:27;4.45;;;1.60;;
18265;SDS011;9259;48.194;16.322;2022-09-03T13:47:59;6.57;;;1.73;;
18265;SDS011;9259;48.194;16.322;2022-09-03T13:50:57;7.07;;;1.60;;
18265;SDS011;9259;48.194;16.322;2022-09-03T13:53:35;2.78;;;1.83;;
18265;SDS011;9259;48.194;16.322;2022-09-03T13:56:15;3.00;;;1.75;;
18265;SDS011;9259;48.194;16.322;2022-09-03T13:58:48;5.97;;;1.75;;
18265;SDS011;9259;48.194;16.322;2022-09-03T14:01:20;2.38;;;1.52;;
18265;SDS011;9259;48.194;16.322;2022-09-03T14:03:56;3.60;;;1.75;;
18265;SDS011;9259;48.194;16.322;2022-09-03T14:06:35;3.55;;;1.50;;
18265;SDS011;9259;48.194;16.322;2022-09-03T14:09:09;2.50;;;1.60;;
18265;SDS011;9259;48.194;16.322;2022-09-03T14:11:47;3.20;;;1.70;;
18265;SDS011;9259;48.194;16.322;2022-09-03T14:14:20;5.50;;;1.60;;
18265;SDS011;9259;48.194;16.322;2022-09-03T14:16:58;6.68;;;1.60;;
18265;SDS011;9259;48.194;16.322;2022-09-03T14:19:33;4.63;;;1.45;;
18265;SDS011;9259;48.194;16.322;2022-09-03T14:22:07;3.90;;;1.95;;
18265;SDS011;9259;48.194;16.322;2022-09-03T14:24:43;2.22;;;1.48;;
18265;SDS011;9259;48.194;16.322;2022-09-03T14:27:21;3.72;;;2.10;;
18265;SDS011;9259;48.194;16.322;2022-09-03T14:29:53;4.72;;;1.75;;
18265;SDS011;9259;48.194;16.322;2022-09-03T14:32:45;3.17;;;1.63;;
18265;SDS011;9259;48.194;16.322;2022-09-03T14:35:22;2.70;;;1.55;;
18265;SDS011;9259;48.194;16.322;2022-09-03T14:38:10;2.15;;;1.80;;
18265;SDS011;9259;48.194;16.322;2022-09-03T14:41:04;3.40;;;1.65;;
18265;SDS011;9259;48.194;16.322;2022-09-03T14:43:50;3.42;;;1.92;;
18265;SDS011;9259;48.194;16.322;2022-09-03T14:46:36;5.30;;;1.70;;
18265;SDS011;9259;48.194;16.322;2022-09-03T14:52:18;3.42;;;1.83;;
18265;SDS011;9259;48.194;16.322;2022-09-03T14:58:03;5.47;;;1.67;;
18265;SDS011;9259;48.194;16.322;2022-09-03T15:00:49;3.13;;;1.77;;
18265;SDS011;9259;48.194;16.322;2022-09-03T15:03:27;5.00;;;1.60;;
18265;SDS011;9259;48.194;16.322;2022-09-03T15:06:31;3.35;;;1.70;;
18265;SDS011;9259;48.194;16.322;2022-09-03T15:09:10;5.57;;;1.77;;
18265;SDS011;9259;48.194;16.322;2022-09-03T15:11:58;3.50;;;1.70;;
18265;SDS011;9259;48.194;16.322;2022-09-03T15:14:34;4.00;;;1.75;;
18265;SDS011;9259;48.194;16.322;2022-09-03T15:17:19;6.28;;;1.55;;
18265;SDS011;9259;48.194;16.322;2022-09-03T15:20:15;4.10;;;1.67;;
18265;SDS011;9259;48.194;16.322;2022-09-03T15:22:56;4.90;;;1.90;;
18265;SDS011;9259;48.194;16.322;2022-09-03T15:26:05;7.80;;;2.05;;
18265;SDS011;9259;48.194;16.322;2022-09-03T15:28:54;4.85;;;2.00;;
18265;SDS011;9259;48.194;16.322;2022-09-03T15:31:31;6.22;;;1.88;;
18265;SDS011;9259;48.194;16.322;2022-09-03T15:34:07;3.17;;;1.90;;
18265;SDS011;9259;48.194;16.322;2022-09-03T15:36:42;2.53;;;1.70;;
18265;SDS011;9259;48.194;16.322;2022-09-03T15:39:15;3.15;;;1.67;;
18265;SDS011;9259;48.194;16.322;2022-09-03T15:41:49;3.83;;;2.00;;